createdAt,value
2016-11-21T00:00:17.607Z,2.82
2016-11-21T00:01:26.301Z,2.79
2016-11-21T00:02:34.995Z,2.9
2016-11-21T00:03:43.692Z,2.82
2016-11-21T00:04:52.389Z,2.72
2016-11-21T00:06:01.109Z,2.75
2016-11-21T00:07:09.807Z,2.72
2016-11-21T00:08:18.496Z,2.75
2016-11-21T00:09:27.191Z,2.72
2016-11-21T00:10:35.879Z,2.64
2016-11-21T00:11:44.568Z,2.68
2016-11-21T00:12:53.263Z,2.62
2016-11-21T00:14:01.951Z,2.61
2016-11-21T00:15:10.642Z,2.62
2016-11-21T00:16:19.650Z,2.68
2016-11-21T00:17:28.347Z,2.65
2016-11-21T00:18:37.036Z,2.61
2016-11-21T00:19:45.729Z,2.59
2016-11-21T00:20:54.421Z,2.55
2016-11-21T00:22:03.119Z,2.54
2016-11-21T00:23:11.805Z,2.52
2016-11-21T00:24:20.497Z,2.52
2016-11-21T00:25:29.191Z,2.54
2016-11-21T00:26:37.880Z,2.41
2016-11-21T00:27:46.576Z,2.52
2016-11-21T00:28:55.275Z,2.47
2016-11-21T00:30:03.998Z,2.57
2016-11-21T00:31:12.690Z,2.52
2016-11-21T00:32:21.377Z,2.5
2016-11-21T00:33:30.103Z,2.54
2016-11-21T00:34:38.799Z,2.54
2016-11-21T00:35:47.492Z,2.58
2016-11-21T00:36:56.181Z,2.5
2016-11-21T00:38:04.873Z,2.47
2016-11-21T00:39:13.564Z,2.51
2016-11-21T00:40:22.255Z,2.51
2016-11-21T00:41:30.952Z,2.51
2016-11-21T00:42:39.683Z,2.47
2016-11-21T00:43:48.370Z,2.41
2016-11-21T00:44:57.064Z,2.43
2016-11-21T00:46:05.753Z,2.36
2016-11-21T00:47:14.451Z,2.36
2016-11-21T00:48:23.148Z,2.37
2016-11-21T00:49:31.847Z,2.36
2016-11-21T00:50:40.542Z,2.43
2016-11-21T00:51:49.231Z,2.43
2016-11-21T00:52:57.920Z,2.43
2016-11-21T00:54:06.619Z,2.5
2016-11-21T00:55:15.306Z,2.47
2016-11-21T00:56:23.994Z,2.52
2016-11-21T00:57:32.698Z,2.4
2016-11-21T00:58:41.420Z,2.4
2016-11-21T00:59:50.108Z,2.39
2016-11-21T01:00:58.805Z,2.52
2016-11-21T01:02:07.494Z,2.43
2016-11-21T01:03:16.237Z,2.51
2016-11-21T01:04:25.245Z,2.52
2016-11-21T01:05:33.939Z,2.51
2016-11-21T01:06:42.627Z,2.47
2016-11-21T01:07:51.320Z,2.52
2016-11-21T01:09:00.007Z,2.44
2016-11-21T01:10:08.708Z,2.41
2016-11-21T01:11:17.399Z,2.52
2016-11-21T01:12:26.086Z,2.51
2016-11-21T01:13:34.779Z,2.46
2016-11-21T01:14:43.489Z,2.47
2016-11-21T01:15:52.184Z,2.46
2016-11-21T01:17:00.888Z,2.52
2016-11-21T01:18:09.581Z,2.51
2016-11-21T01:19:18.268Z,2.52
2016-11-21T01:20:26.956Z,2.57
2016-11-21T01:21:35.648Z,2.52
2016-11-21T01:22:44.347Z,2.59
2016-11-21T01:23:53.039Z,2.61
2016-11-21T01:25:01.727Z,2.57
2016-11-21T01:26:10.419Z,2.62
2016-11-21T01:27:19.109Z,2.57
2016-11-21T01:28:27.803Z,2.61
2016-11-21T01:29:36.498Z,2.57
2016-11-21T01:30:45.188Z,2.55
2016-11-21T01:31:53.878Z,2.5
2016-11-21T01:33:02.567Z,2.51
2016-11-21T01:34:11.256Z,2.5
2016-11-21T01:35:19.945Z,2.52
2016-11-21T01:36:28.639Z,2.46
2016-11-21T01:37:37.335Z,2.5
2016-11-21T01:38:46.024Z,2.5
2016-11-21T01:39:54.714Z,2.55
2016-11-21T01:41:03.404Z,2.65
2016-11-21T01:42:12.096Z,2.54
2016-11-21T01:43:20.787Z,2.59
2016-11-21T01:44:29.473Z,2.58
2016-11-21T01:45:38.166Z,2.61
2016-11-21T01:46:46.862Z,2.62
2016-11-21T01:47:55.554Z,2.55
2016-11-21T01:49:04.248Z,2.55
2016-11-21T01:50:13.279Z,2.59
2016-11-21T01:51:21.968Z,2.52
2016-11-21T01:52:30.662Z,2.52
2016-11-21T01:53:39.352Z,2.57
2016-11-21T01:54:48.044Z,2.58
2016-11-21T01:55:56.762Z,2.58
2016-11-21T01:57:05.766Z,2.57
2016-11-21T01:58:14.452Z,2.51
2016-11-21T01:59:23.142Z,2.54
2016-11-21T02:00:31.837Z,2.55
2016-11-21T02:01:40.529Z,2.54
2016-11-21T02:02:49.222Z,2.59
2016-11-21T02:03:57.914Z,2.68
2016-11-21T02:05:06.607Z,2.69
2016-11-21T02:06:15.299Z,2.68
2016-11-21T02:07:23.990Z,2.61
2016-11-21T02:08:32.687Z,2.65
2016-11-21T02:09:41.374Z,2.7
2016-11-21T02:10:50.066Z,2.62
2016-11-21T02:11:58.760Z,2.61
2016-11-21T02:13:07.452Z,2.68
2016-11-21T02:14:16.141Z,2.68
2016-11-21T02:15:24.831Z,2.64
2016-11-21T02:16:33.518Z,2.57
2016-11-21T02:17:42.208Z,2.57
2016-11-21T02:18:50.924Z,2.68
2016-11-21T02:19:59.676Z,2.68
2016-11-21T02:21:08.376Z,2.68
2016-11-21T02:22:17.062Z,2.65
2016-11-21T02:23:25.759Z,2.62
2016-11-21T02:24:34.448Z,2.72
2016-11-21T02:25:43.139Z,2.65
2016-11-21T02:26:51.834Z,2.64
2016-11-21T02:28:00.523Z,2.68
2016-11-21T02:29:09.212Z,2.65
2016-11-21T02:30:17.906Z,2.62
2016-11-21T02:31:26.594Z,2.73
2016-11-21T02:32:35.285Z,2.65
2016-11-21T02:33:43.976Z,2.62
2016-11-21T02:34:52.668Z,2.7
2016-11-21T02:36:01.352Z,2.61
2016-11-21T02:37:10.044Z,2.73
2016-11-21T02:38:18.746Z,2.73
2016-11-21T02:39:27.439Z,2.73
2016-11-21T02:40:36.151Z,2.68
2016-11-21T02:41:44.842Z,2.69
2016-11-21T02:42:53.543Z,2.65
2016-11-21T02:44:02.238Z,2.64
2016-11-21T02:45:10.927Z,2.62
2016-11-21T02:46:19.979Z,2.75
2016-11-21T02:47:28.679Z,2.64
2016-11-21T02:48:37.369Z,2.72
2016-11-21T02:49:46.097Z,2.64
2016-11-21T02:50:54.791Z,2.65
2016-11-21T02:52:03.491Z,2.64
2016-11-21T02:53:12.182Z,2.64
2016-11-21T02:54:20.873Z,2.61
2016-11-21T02:55:29.566Z,2.58
2016-11-21T02:56:38.287Z,2.55
2016-11-21T02:57:46.980Z,2.61
2016-11-21T02:58:55.686Z,2.59
2016-11-21T03:00:04.381Z,2.58
2016-11-21T03:01:13.103Z,2.64
2016-11-21T03:02:22.110Z,2.62
2016-11-21T03:03:30.848Z,2.7
2016-11-21T03:04:39.577Z,2.72
2016-11-21T03:05:48.277Z,2.7
2016-11-21T03:06:57.284Z,2.68
2016-11-21T03:08:05.977Z,2.62
2016-11-21T03:09:14.719Z,2.72
2016-11-21T03:10:23.408Z,2.68
2016-11-21T03:11:32.100Z,2.59
2016-11-21T03:12:40.789Z,2.69
2016-11-21T03:13:49.489Z,2.75
2016-11-21T03:14:58.182Z,2.64
2016-11-21T03:16:06.880Z,2.75
2016-11-21T03:17:15.596Z,2.62
2016-11-21T03:18:24.296Z,2.65
2016-11-21T03:19:32.984Z,2.73
2016-11-21T03:20:41.681Z,2.73
2016-11-21T03:21:50.369Z,2.65
2016-11-21T03:22:59.061Z,2.76
2016-11-21T03:24:07.754Z,2.75
2016-11-21T03:25:16.445Z,2.76
2016-11-21T03:26:25.235Z,2.76
2016-11-21T03:27:33.969Z,2.72
2016-11-21T03:28:42.968Z,2.75
2016-11-21T03:29:51.657Z,2.77
2016-11-21T03:31:00.351Z,2.76
2016-11-21T03:32:09.038Z,2.76
2016-11-21T03:33:17.725Z,2.75
2016-11-21T03:34:26.437Z,2.77
2016-11-21T03:35:35.131Z,2.79
2016-11-21T03:36:43.821Z,2.75
2016-11-21T03:37:52.507Z,2.88
2016-11-21T03:39:01.199Z,2.87
2016-11-21T03:40:09.892Z,2.8
2016-11-21T03:41:18.904Z,2.9
2016-11-21T03:42:27.596Z,2.87
2016-11-21T03:43:36.597Z,2.7
2016-11-21T03:44:45.285Z,2.69
2016-11-21T03:45:53.978Z,2.51
2016-11-21T03:47:02.684Z,2.57
2016-11-21T03:48:11.380Z,2.54
2016-11-21T03:49:20.070Z,2.46
2016-11-21T03:50:28.763Z,2.37
2016-11-21T03:51:37.457Z,2.3
2016-11-21T03:52:46.145Z,2.19
2016-11-21T03:53:54.833Z,2.21
2016-11-21T03:55:03.585Z,2.04
2016-11-21T03:56:12.275Z,2.04
2016-11-21T03:57:20.964Z,2.03
2016-11-21T03:58:29.683Z,2.1
2016-11-21T03:59:38.368Z,2.07
2016-11-21T04:00:47.075Z,2.04
2016-11-21T04:01:55.766Z,1.93
2016-11-21T04:03:04.465Z,1.98
2016-11-21T04:04:13.154Z,2.04
2016-11-21T04:05:21.844Z,2.04
2016-11-21T04:06:30.543Z,2.1
2016-11-21T04:07:39.234Z,2.04
2016-11-21T04:08:47.923Z,1.97
2016-11-21T04:09:56.619Z,2.01
2016-11-21T04:11:05.316Z,1.84
2016-11-21T04:12:14.004Z,1.86
2016-11-21T04:13:22.699Z,2
2016-11-21T04:14:31.388Z,2.04
2016-11-21T04:15:40.074Z,2.12
2016-11-21T04:16:48.772Z,2.26
2016-11-21T04:17:57.466Z,2.21
2016-11-21T04:19:06.162Z,1.98
2016-11-21T04:20:14.851Z,1.97
2016-11-21T04:21:23.545Z,1.89
2016-11-21T04:22:32.241Z,1.84
2016-11-21T04:23:40.933Z,1.76
2016-11-21T04:24:49.629Z,1.71
2016-11-21T04:25:58.318Z,1.76
2016-11-21T04:27:07.005Z,1.71
2016-11-21T04:28:15.699Z,1.7
2016-11-21T04:29:24.385Z,1.71
2016-11-21T04:30:33.078Z,1.76
2016-11-21T04:31:41.767Z,1.64
2016-11-21T04:32:50.459Z,1.58
2016-11-21T04:33:59.153Z,1.71
2016-11-21T04:35:07.843Z,1.63
2016-11-21T04:36:16.529Z,1.58
2016-11-21T04:37:25.226Z,1.63
2016-11-21T04:38:33.916Z,1.58
2016-11-21T04:39:42.615Z,1.61
2016-11-21T04:40:51.303Z,1.63
2016-11-21T04:42:00.002Z,1.6
2016-11-21T04:43:08.693Z,1.58
2016-11-21T04:44:17.387Z,1.63
2016-11-21T04:45:26.072Z,1.7
2016-11-21T04:46:34.758Z,1.63
2016-11-21T04:47:43.447Z,1.6
2016-11-21T04:48:52.135Z,1.6
2016-11-21T04:50:00.824Z,1.67
2016-11-21T04:51:09.515Z,1.63
2016-11-21T04:52:18.209Z,1.6
2016-11-21T04:53:26.901Z,1.61
2016-11-21T04:54:35.587Z,1.53
2016-11-21T04:55:44.277Z,1.57
2016-11-21T04:56:52.965Z,1.57
2016-11-21T04:58:01.658Z,1.53
2016-11-21T04:59:10.345Z,1.7
2016-11-21T05:00:19.042Z,1.88
2016-11-21T05:01:27.765Z,1.89
2016-11-21T05:02:36.458Z,1.97
2016-11-21T05:03:45.148Z,2
2016-11-21T05:04:53.838Z,2.05
2016-11-21T05:06:02.558Z,2.04
2016-11-21T05:07:11.244Z,1.97
2016-11-21T05:08:19.935Z,2
2016-11-21T05:09:28.629Z,2
2016-11-21T05:10:37.320Z,1.84
2016-11-21T05:11:46.005Z,1.85
2016-11-21T05:12:54.694Z,1.75
2016-11-21T05:14:03.390Z,1.76
2016-11-21T05:15:12.080Z,1.71
2016-11-21T05:16:20.769Z,1.79
2016-11-21T05:17:29.457Z,1.84
2016-11-21T05:18:38.149Z,1.86
2016-11-21T05:19:46.887Z,1.74
2016-11-21T05:20:55.576Z,1.68
2016-11-21T05:22:04.267Z,1.75
2016-11-21T05:23:12.956Z,1.67
2016-11-21T05:24:21.650Z,1.61
2016-11-21T05:25:30.653Z,1.66
2016-11-21T05:26:39.346Z,1.66
2016-11-21T05:27:48.036Z,1.58
2016-11-21T05:28:56.723Z,1.6
2016-11-21T05:30:05.437Z,1.56
2016-11-21T05:31:14.127Z,1.6
2016-11-21T05:32:22.822Z,1.63
2016-11-21T05:33:31.516Z,1.7
2016-11-21T05:34:40.247Z,1.78
2016-11-21T05:35:48.946Z,1.68
2016-11-21T05:36:57.636Z,1.66
2016-11-21T05:38:06.693Z,1.66
2016-11-21T05:39:15.707Z,1.58
2016-11-21T05:40:24.398Z,1.57
2016-11-21T05:41:33.084Z,1.56
2016-11-21T05:42:41.786Z,1.57
2016-11-21T05:43:50.482Z,1.56
2016-11-21T05:44:59.172Z,1.48
2016-11-21T05:46:07.867Z,1.52
2016-11-21T05:47:16.553Z,1.56
2016-11-21T05:48:25.249Z,1.46
2016-11-21T05:49:33.937Z,1.45
2016-11-21T05:50:42.630Z,1.45
2016-11-21T05:51:51.339Z,1.5
2016-11-21T05:53:00.032Z,1.52
2016-11-21T05:54:08.720Z,1.48
2016-11-21T05:55:17.412Z,1.45
2016-11-21T05:56:26.109Z,1.53
2016-11-21T05:57:34.802Z,1.58
2016-11-21T05:58:43.500Z,1.52
2016-11-21T05:59:52.192Z,1.42
2016-11-21T06:01:00.931Z,1.46
2016-11-21T06:02:09.934Z,1.45
2016-11-21T06:03:18.626Z,1.5
2016-11-21T06:04:27.321Z,1.5
2016-11-21T06:05:36.040Z,1.52
2016-11-21T06:06:44.729Z,1.45
2016-11-21T06:07:53.419Z,1.5
2016-11-21T06:09:02.114Z,1.46
2016-11-21T06:10:10.806Z,1.52
2016-11-21T06:11:19.506Z,1.48
2016-11-21T06:12:28.196Z,1.49
2016-11-21T06:13:36.894Z,1.5
2016-11-21T06:14:45.585Z,1.49
2016-11-21T06:15:54.277Z,1.46
2016-11-21T06:17:02.963Z,1.48
2016-11-21T06:18:11.654Z,1.46
2016-11-21T06:19:20.349Z,1.48
2016-11-21T06:20:29.041Z,1.49
2016-11-21T06:21:37.734Z,1.52
2016-11-21T06:22:46.421Z,1.5
2016-11-21T06:23:55.111Z,1.43
2016-11-21T06:25:03.809Z,1.53
2016-11-21T06:26:12.513Z,1.5
2016-11-21T06:27:21.229Z,1.52
2016-11-21T06:28:29.924Z,1.45
2016-11-21T06:29:38.930Z,1.52
2016-11-21T06:30:47.620Z,1.48
2016-11-21T06:31:56.308Z,1.56
2016-11-21T06:33:05.324Z,1.5
2016-11-21T06:34:14.011Z,1.56
2016-11-21T06:35:22.747Z,1.57
2016-11-21T06:36:31.442Z,1.56
2016-11-21T06:37:40.133Z,1.57
2016-11-21T06:38:48.828Z,1.56
2016-11-21T06:39:57.519Z,1.46
2016-11-21T06:41:06.211Z,1.57
2016-11-21T06:42:14.900Z,1.56
2016-11-21T06:43:23.600Z,1.53
2016-11-21T06:44:32.286Z,1.66
2016-11-21T06:45:40.977Z,1.63
2016-11-21T06:46:49.664Z,1.7
2016-11-21T06:47:58.359Z,1.64
2016-11-21T06:49:07.053Z,1.67
2016-11-21T06:50:15.777Z,1.64
2016-11-21T06:51:24.467Z,1.68
2016-11-21T06:52:33.157Z,1.68
2016-11-21T06:53:41.850Z,1.76
2016-11-21T06:54:50.549Z,1.74
2016-11-21T06:55:59.242Z,1.75
2016-11-21T06:57:07.934Z,1.81
2016-11-21T06:58:16.626Z,1.74
2016-11-21T06:59:25.318Z,1.76
2016-11-21T07:00:34.011Z,1.74
2016-11-21T07:01:42.702Z,1.79
2016-11-21T07:02:51.394Z,1.76
2016-11-21T07:04:00.086Z,1.79
2016-11-21T07:05:08.782Z,1.75
2016-11-21T07:06:17.475Z,1.71
2016-11-21T07:07:26.177Z,1.76
2016-11-21T07:08:34.897Z,1.63
2016-11-21T07:09:43.591Z,1.74
2016-11-21T07:10:52.289Z,1.75
2016-11-21T07:12:00.981Z,1.64
2016-11-21T07:13:09.699Z,1.61
2016-11-21T07:14:18.387Z,1.71
2016-11-21T07:15:27.082Z,1.68
2016-11-21T07:16:35.778Z,1.7
2016-11-21T07:17:44.464Z,1.78
2016-11-21T07:18:53.158Z,1.81
2016-11-21T07:20:01.858Z,1.85
2016-11-21T07:21:10.548Z,1.84
2016-11-21T07:22:19.238Z,1.85
2016-11-21T07:23:27.931Z,1.86
2016-11-21T07:24:36.619Z,1.84
2016-11-21T07:25:45.314Z,1.86
2016-11-21T07:26:54.007Z,2.01
2016-11-21T07:28:02.721Z,2.04
2016-11-21T07:29:11.406Z,2.04
2016-11-21T07:30:20.095Z,2.04
2016-11-21T07:31:28.783Z,2.05
2016-11-21T07:32:37.470Z,2.01
2016-11-21T07:33:46.164Z,2.04
2016-11-21T07:34:54.864Z,2.05
2016-11-21T07:36:03.593Z,2.12
2016-11-21T07:37:12.284Z,2.19
2016-11-21T07:38:20.978Z,2.21
2016-11-21T07:39:29.673Z,2.33
2016-11-21T07:40:38.365Z,2.37
2016-11-21T07:41:47.059Z,2.47
2016-11-21T07:42:55.750Z,2.54
2016-11-21T07:44:04.446Z,2.61
2016-11-21T07:45:13.451Z,2.58
2016-11-21T07:46:22.141Z,2.68
2016-11-21T07:47:30.835Z,2.59
2016-11-21T07:48:39.558Z,2.59
2016-11-21T07:49:48.242Z,2.54
2016-11-21T07:50:56.929Z,2.52
2016-11-21T07:52:05.615Z,2.58
2016-11-21T07:53:14.312Z,2.5
2016-11-21T07:54:23.320Z,2.52
2016-11-21T07:55:32.018Z,2.51
2016-11-21T07:56:40.711Z,2.51
2016-11-21T07:57:49.406Z,2.5
2016-11-21T07:58:58.100Z,2.5
2016-11-21T08:00:06.799Z,2.4
2016-11-21T08:01:15.490Z,2.39
2016-11-21T08:02:24.183Z,2.47
2016-11-21T08:03:32.883Z,2.41
2016-11-21T08:04:41.574Z,2.4
2016-11-21T08:05:50.261Z,2.33
2016-11-21T08:06:59.007Z,2.32
2016-11-21T08:08:08.012Z,2.41
2016-11-21T08:09:16.704Z,2.37
2016-11-21T08:10:25.387Z,2.39
2016-11-21T08:11:34.080Z,2.36
2016-11-21T08:12:42.875Z,2.36
2016-11-21T08:13:51.581Z,2.39
2016-11-21T08:15:00.272Z,2.44
2016-11-21T08:16:08.966Z,2.43
2016-11-21T08:17:17.656Z,2.51
2016-11-21T08:18:26.357Z,2.52
2016-11-21T08:19:35.066Z,2.5
2016-11-21T08:20:43.759Z,2.54
2016-11-21T08:21:52.446Z,2.57
2016-11-21T08:23:01.135Z,2.57
2016-11-21T08:24:09.826Z,2.62
2016-11-21T08:25:18.538Z,2.75
2016-11-21T08:26:27.228Z,2.77
2016-11-21T08:27:35.919Z,2.73
2016-11-21T08:28:44.637Z,2.91
2016-11-21T08:29:53.329Z,2.9
2016-11-21T08:31:02.014Z,2.93
2016-11-21T08:32:10.702Z,2.88
2016-11-21T08:33:19.430Z,3.05
2016-11-21T08:34:28.431Z,3
2016-11-21T08:35:37.122Z,2.98
2016-11-21T08:36:45.809Z,2.9
2016-11-21T08:37:54.494Z,2.95
2016-11-21T08:39:03.183Z,2.94
2016-11-21T08:40:11.871Z,2.93
2016-11-21T08:41:20.562Z,2.93
2016-11-21T08:42:29.253Z,2.94
2016-11-21T08:43:37.943Z,2.93
2016-11-21T08:44:46.646Z,2.9
2016-11-21T08:45:55.344Z,2.93
2016-11-21T08:47:04.036Z,2.93
2016-11-21T08:48:12.730Z,2.97
2016-11-21T08:49:21.427Z,3.01
2016-11-21T08:50:30.135Z,3.12
2016-11-21T08:51:38.822Z,3.18
2016-11-21T08:52:47.521Z,3.21
2016-11-21T08:53:56.210Z,3.31
2016-11-21T08:55:04.899Z,3.4
2016-11-21T08:56:13.597Z,3.43
2016-11-21T08:57:22.306Z,3.48
2016-11-21T08:58:30.997Z,3.58
2016-11-21T08:59:39.687Z,3.49
2016-11-21T09:00:48.383Z,3.55
2016-11-21T09:01:57.070Z,3.63
2016-11-21T09:03:05.790Z,3.58
2016-11-21T09:04:14.479Z,3.67
2016-11-21T09:05:23.175Z,3.64
2016-11-21T09:06:31.870Z,3.67
2016-11-21T09:07:40.565Z,3.55
2016-11-21T09:08:49.285Z,3.61
2016-11-21T09:09:57.983Z,3.45
2016-11-21T09:11:06.673Z,3.33
2016-11-21T09:12:15.416Z,3.29
2016-11-21T09:13:24.188Z,3.21
2016-11-21T09:14:32.984Z,3.09
2016-11-21T09:15:41.672Z,3.11
2016-11-21T09:16:50.364Z,3.01
2016-11-21T09:17:59.053Z,3.03
2016-11-21T09:19:07.769Z,3.03
2016-11-21T09:20:16.496Z,2.95
2016-11-21T09:21:25.224Z,2.97
2016-11-21T09:22:33.932Z,3.05
2016-11-21T09:23:42.656Z,3.06
2016-11-21T09:24:51.342Z,2.93
2016-11-21T09:26:00.054Z,2.94
2016-11-21T09:27:08.750Z,2.91
2016-11-21T09:28:17.464Z,2.85
2016-11-21T09:29:26.155Z,2.88
2016-11-21T09:30:34.848Z,2.91
2016-11-21T09:31:43.544Z,2.88
2016-11-21T09:32:52.234Z,2.87
2016-11-21T09:34:01.236Z,2.91
2016-11-21T09:35:09.936Z,2.87
2016-11-21T09:36:18.628Z,3
2016-11-21T09:37:27.323Z,2.95
2016-11-21T09:38:36.013Z,3.06
2016-11-21T09:39:44.709Z,3.18
2016-11-21T09:40:53.396Z,3.22
2016-11-21T09:42:02.088Z,3.29
2016-11-21T09:43:10.779Z,3.19
2016-11-21T09:44:19.471Z,3.22
2016-11-21T09:45:28.171Z,3.18
2016-11-21T09:46:36.894Z,3.37
2016-11-21T09:47:45.591Z,3.37
2016-11-21T09:48:54.287Z,3.5
2016-11-21T09:50:02.977Z,3.5
2016-11-21T09:51:11.671Z,3.58
2016-11-21T09:52:20.368Z,3.7
2016-11-21T09:53:29.054Z,3.71
2016-11-21T09:54:37.740Z,3.74
2016-11-21T09:55:46.432Z,3.77
2016-11-21T09:56:55.124Z,3.91
2016-11-21T09:58:03.816Z,3.88
2016-11-21T09:59:12.514Z,3.99
2016-11-21T10:00:21.216Z,4.02
2016-11-21T10:01:29.938Z,4.04
2016-11-21T10:02:38.623Z,4.13
2016-11-21T10:03:47.312Z,4.28
2016-11-21T10:04:56.005Z,4.36
2016-11-21T10:06:04.723Z,4.38
2016-11-21T10:07:13.445Z,4.39
2016-11-21T10:08:22.136Z,4.36
2016-11-21T10:09:30.824Z,4.3
2016-11-21T10:10:39.519Z,4.42
2016-11-21T10:11:48.210Z,4.39
2016-11-21T10:12:56.899Z,4.46
2016-11-21T10:14:05.639Z,4.57
2016-11-21T10:15:14.337Z,4.57
2016-11-21T10:16:23.059Z,4.56
2016-11-21T10:17:31.747Z,4.63
2016-11-21T10:18:40.440Z,4.53
2016-11-21T10:19:49.154Z,4.42
2016-11-21T10:20:57.848Z,4.58
2016-11-21T10:22:06.558Z,4.5
2016-11-21T10:23:15.244Z,4.32
2016-11-21T10:24:23.936Z,4.2
2016-11-21T10:25:32.638Z,3.95
2016-11-21T10:26:41.347Z,3.78
2016-11-21T10:27:50.038Z,3.64
2016-11-21T10:28:58.761Z,3.55
2016-11-21T10:30:07.456Z,3.45
2016-11-21T10:31:16.152Z,3.34
2016-11-21T10:32:24.843Z,3.22
2016-11-21T10:33:33.540Z,3.33
2016-11-21T10:34:42.242Z,3.36
2016-11-21T10:35:50.933Z,3.49
2016-11-21T10:36:59.620Z,3.52
2016-11-21T10:38:08.305Z,3.58
2016-11-21T10:39:17.315Z,3.53
2016-11-21T10:40:26.012Z,3.46
2016-11-21T10:41:34.730Z,3.48
2016-11-21T10:42:43.419Z,3.53
2016-11-21T10:43:52.110Z,3.64
2016-11-21T10:45:00.797Z,3.56
2016-11-21T10:46:09.487Z,3.48
2016-11-21T10:47:18.178Z,3.36
2016-11-21T10:48:26.903Z,3.31
2016-11-21T10:49:35.603Z,3.37
2016-11-21T10:50:44.299Z,3.37
2016-11-21T10:51:52.987Z,3.41
2016-11-21T10:53:01.682Z,3.45
2016-11-21T10:54:10.375Z,3.68
2016-11-21T10:55:19.062Z,3.67
2016-11-21T10:56:27.755Z,3.61
2016-11-21T10:57:36.785Z,3.52
2016-11-21T10:58:45.830Z,3.34
2016-11-21T10:59:54.526Z,3.34
2016-11-21T11:01:03.222Z,3.27
2016-11-21T11:02:11.912Z,3.26
2016-11-21T11:03:20.614Z,3.24
2016-11-21T11:04:29.311Z,3.21
2016-11-21T11:05:38.002Z,3.31
2016-11-21T11:06:46.692Z,3.45
2016-11-21T11:07:55.387Z,3.76
2016-11-21T11:09:04.078Z,3.71
2016-11-21T11:10:12.782Z,3.82
2016-11-21T11:11:21.474Z,3.94
2016-11-21T11:12:30.195Z,4.13
2016-11-21T11:13:38.886Z,4.58
2016-11-21T11:14:47.582Z,4.86
2016-11-21T11:15:56.279Z,4.94
2016-11-21T11:17:04.967Z,4.58
2016-11-21T11:18:13.660Z,4.32
2016-11-21T11:19:22.353Z,4.18
2016-11-21T11:20:31.051Z,4.07
2016-11-21T11:21:39.741Z,4.18
2016-11-21T11:22:48.433Z,4.3
2016-11-21T11:23:57.151Z,4.24
2016-11-21T11:25:05.845Z,4.2
2016-11-21T11:26:14.569Z,4.06
2016-11-21T11:27:23.312Z,4.07
2016-11-21T11:28:32.017Z,4.09
2016-11-21T11:29:40.717Z,4.12
2016-11-21T11:30:49.413Z,4.14
2016-11-21T11:31:58.115Z,4.13
2016-11-21T11:33:06.807Z,4.1
2016-11-21T11:34:15.502Z,4.12
2016-11-21T11:35:24.191Z,4.3
2016-11-21T11:36:32.879Z,5.02
2016-11-21T11:37:41.569Z,6.06
2016-11-21T11:38:50.258Z,7.21
2016-11-21T11:39:58.952Z,8.18
2016-11-21T11:41:07.962Z,8.87
2016-11-21T11:42:17.042Z,8.69
2016-11-21T11:43:25.741Z,7.91
2016-11-21T11:44:34.436Z,7.37
2016-11-21T11:45:43.128Z,7.37
2016-11-21T11:46:51.821Z,8.02
2016-11-21T11:48:00.539Z,7.51
2016-11-21T11:49:09.235Z,6.72
2016-11-21T11:50:17.962Z,6.62
2016-11-21T11:51:26.663Z,6.62
2016-11-21T11:52:35.698Z,7.15
2016-11-21T11:53:44.398Z,7.88
2016-11-21T11:54:53.093Z,8.6
2016-11-21T11:56:02.023Z,9.62
2016-11-21T11:57:10.719Z,10.34
2016-11-21T11:58:19.414Z,10.87
2016-11-21T11:59:28.121Z,10.24
2016-11-21T12:00:36.817Z,8.77
2016-11-21T12:01:45.508Z,7.9
2016-11-21T12:02:54.210Z,7.05
2016-11-21T12:04:02.908Z,6.52
2016-11-21T12:05:11.611Z,5.98
2016-11-21T12:06:20.313Z,5.61
2016-11-21T12:07:29.009Z,5.23
2016-11-21T12:08:37.707Z,4.92
2016-11-21T12:09:46.433Z,4.75
2016-11-21T12:10:55.133Z,4.86
2016-11-21T12:12:03.824Z,5.73
2016-11-21T12:13:12.910Z,6.8
2016-11-21T12:14:21.642Z,7.13
2016-11-21T12:15:30.663Z,7.28
2016-11-21T12:16:39.388Z,7.28
2016-11-21T12:17:48.092Z,7.69
2016-11-21T12:18:56.835Z,7.81
2016-11-21T12:20:05.535Z,8.03
2016-11-21T12:21:14.232Z,8.24
2016-11-21T12:22:22.925Z,8.52
2016-11-21T12:23:31.619Z,8.53
2016-11-21T12:24:40.458Z,8.79
2016-11-21T12:25:49.155Z,9.19
2016-11-21T12:26:58.194Z,9.39
2016-11-21T12:28:07.207Z,9.56
2016-11-21T12:29:16.257Z,9.97
2016-11-21T12:30:25.299Z,10.17
2016-11-21T12:31:34.000Z,10.57
2016-11-21T12:32:42.710Z,10.84
2016-11-21T12:33:51.405Z,10.87
2016-11-21T12:35:00.098Z,11.05
2016-11-21T12:36:08.801Z,10.84
2016-11-21T12:37:17.496Z,9.99
2016-11-21T12:38:26.196Z,8.54
2016-11-21T12:39:34.898Z,8.05
2016-11-21T12:40:43.599Z,7.04
2016-11-21T12:41:52.298Z,6.54
2016-11-21T12:43:00.993Z,5.87
2016-11-21T12:44:09.697Z,5.15
2016-11-21T12:45:18.393Z,4.75
2016-11-21T12:46:27.087Z,4.5
2016-11-21T12:47:35.783Z,4.58
2016-11-21T12:48:44.486Z,5.02
2016-11-21T12:49:53.193Z,6.77
2016-11-21T12:51:01.891Z,8.09
2016-11-21T12:52:10.583Z,8.79
2016-11-21T12:53:19.282Z,9.36
2016-11-21T12:54:27.980Z,9.7
2016-11-21T12:55:36.674Z,9.88
2016-11-21T12:56:45.373Z,9.94
2016-11-21T12:57:54.069Z,9.88
2016-11-21T12:59:03.078Z,9.63
2016-11-21T13:00:11.800Z,9.66
2016-11-21T13:01:20.494Z,9.64
2016-11-21T13:02:29.199Z,9.56
2016-11-21T13:03:37.900Z,9.42
2016-11-21T13:04:46.600Z,8.59
2016-11-21T13:05:55.294Z,7.62
2016-11-21T13:07:03.996Z,6.56
2016-11-21T13:08:12.691Z,5.9
2016-11-21T13:09:21.717Z,5.83
2016-11-21T13:10:30.459Z,5.87
2016-11-21T13:11:39.179Z,5.92
2016-11-21T13:12:47.879Z,5.83
2016-11-21T13:13:56.573Z,5.61
2016-11-21T13:15:05.265Z,5.12
2016-11-21T13:16:13.961Z,4.79
2016-11-21T13:17:22.657Z,4.48
2016-11-21T13:18:31.355Z,4.25
2016-11-21T13:19:40.044Z,4.06
2016-11-21T13:20:48.744Z,3.92
2016-11-21T13:21:57.434Z,3.81
2016-11-21T13:23:06.124Z,3.81
2016-11-21T13:24:14.817Z,3.67
2016-11-21T13:25:23.523Z,3.7
2016-11-21T13:26:32.224Z,3.77
2016-11-21T13:27:40.919Z,3.78
2016-11-21T13:28:49.611Z,3.71
2016-11-21T13:29:58.305Z,3.56
2016-11-21T13:31:07.006Z,3.4
2016-11-21T13:32:15.712Z,3.19
2016-11-21T13:33:24.403Z,3.05
2016-11-21T13:34:33.099Z,2.97
2016-11-21T13:35:41.793Z,3
2016-11-21T13:36:50.482Z,2.87
2016-11-21T13:37:59.171Z,2.79
2016-11-21T13:39:07.863Z,2.69
2016-11-21T13:40:16.556Z,2.62
2016-11-21T13:41:25.249Z,2.62
2016-11-21T13:42:33.973Z,2.59
2016-11-21T13:43:42.669Z,2.47
2016-11-21T13:44:51.362Z,2.4
2016-11-21T13:46:00.049Z,2.33
2016-11-21T13:47:08.849Z,2.21
2016-11-21T13:48:17.540Z,2.21
2016-11-21T13:49:26.235Z,2.25
2016-11-21T13:50:34.933Z,2.18
2016-11-21T13:51:43.626Z,2.22
2016-11-21T13:52:52.321Z,2.14
2016-11-21T13:54:01.050Z,1.97
2016-11-21T13:55:09.739Z,2.05
2016-11-21T13:56:18.426Z,2.01
2016-11-21T13:57:27.118Z,1.97
2016-11-21T13:58:35.809Z,1.97
2016-11-21T13:59:44.500Z,1.88
2016-11-21T14:00:53.193Z,1.88
2016-11-21T14:02:01.913Z,1.7
2016-11-21T14:03:10.602Z,1.58
2016-11-21T14:04:19.338Z,1.46
2016-11-21T14:05:28.035Z,1.28
2016-11-21T14:06:36.732Z,1.24
2016-11-21T14:07:45.428Z,1.06
2016-11-21T14:08:54.117Z,1.07
2016-11-21T14:10:02.814Z,1.03
2016-11-21T14:11:11.512Z,0.96
2016-11-21T14:12:20.200Z,0.88
2016-11-21T14:13:28.944Z,0.77
2016-11-21T14:14:37.635Z,0.76
2016-11-21T14:15:46.326Z,0.61
2016-11-21T14:16:55.017Z,0.58
2016-11-21T14:18:03.709Z,0.63
2016-11-21T14:19:12.398Z,0.45
2016-11-21T14:20:21.090Z,0.51
2016-11-21T14:21:29.779Z,0.55
2016-11-21T14:22:38.473Z,0.47
2016-11-21T14:23:47.221Z,0.64
2016-11-21T14:24:55.912Z,0.71
2016-11-21T14:26:04.608Z,0.7
2016-11-21T14:27:13.294Z,0.67
2016-11-21T14:28:22.497Z,0.56
2016-11-21T14:29:31.237Z,0.56
2016-11-21T14:30:39.938Z,0.77
2016-11-21T14:31:48.641Z,0.71
2016-11-21T14:32:57.341Z,0.84
2016-11-21T14:34:06.041Z,1
2016-11-21T14:35:14.786Z,1.13
2016-11-21T14:36:23.536Z,1.21
2016-11-21T14:37:32.232Z,1.16
2016-11-21T14:38:40.924Z,1.14
2016-11-21T14:39:49.617Z,1.18
2016-11-21T14:40:58.366Z,1.24
2016-11-21T14:42:07.057Z,1.16
2016-11-21T14:43:15.745Z,1.16
2016-11-21T14:44:24.435Z,1.18
2016-11-21T14:45:33.123Z,1.16
2016-11-21T14:46:41.812Z,1.18
2016-11-21T14:47:50.501Z,1.25
2016-11-21T14:48:59.206Z,1.36
2016-11-21T14:50:07.896Z,1.39
2016-11-21T14:51:16.586Z,1.5
2016-11-21T14:52:25.275Z,1.52
2016-11-21T14:53:33.996Z,1.53
2016-11-21T14:54:42.692Z,1.53
2016-11-21T14:55:51.382Z,1.61
2016-11-21T14:57:00.073Z,1.7
2016-11-21T14:58:08.769Z,1.67
2016-11-21T14:59:17.458Z,1.52
2016-11-21T15:00:26.153Z,1.5
2016-11-21T15:01:34.846Z,1.36
2016-11-21T15:02:43.537Z,1.22
2016-11-21T15:03:52.229Z,1.21
2016-11-21T15:05:00.947Z,1.21
2016-11-21T15:06:09.896Z,1.1
2016-11-21T15:07:19.628Z,1.03
2016-11-21T15:08:29.326Z,0.95
2016-11-21T15:09:38.433Z,0.92
2016-11-21T15:10:48.175Z,1.06
2016-11-21T15:11:58.621Z,1.04
2016-11-21T15:13:08.303Z,1.07
2016-11-21T15:14:17.146Z,1.2
2016-11-21T15:15:25.837Z,1.1
2016-11-21T15:16:34.529Z,1
2016-11-21T15:17:43.220Z,0.99